sensor_id;sensor_type;location;lat;lon;timestamp;pressure;altitude;pressure_sealevel;temperature;humidity
8320;BME280;4197;42.130;24.746;2024-01-25T00:00:23;99898.31;;;2.67;99.11
8320;BME280;4197;42.130;24.746;2024-01-25T00:02:51;99896.66;;;2.71;100.00
8320;BME280;4197;42.130;24.746;2024-01-25T00:05:19;99900.69;;;2.68;100.00
8320;BME280;4197;42.130;24.746;2024-01-25T00:07:49;99870.75;;;2.66;100.00
8320;BME280;4197;42.130;24.746;2024-01-25T00:10:18;99856.59;;;2.47;100.00
8320;BME280;4197;42.130;24.746;2024-01-25T00:12:46;99834.94;;;2.43;100.00
8320;BME280;4197;42.130;24.746;2024-01-25T00:15:16;99843.41;;;2.32;100.00
8320;BME280;4197;42.130;24.746;2024-01-25T00:17:45;99840.72;;;2.13;100.00
8320;BME280;4197;42.130;24.746;2024-01-25T00:20:13;99844.19;;;2.13;100.00
8320;BME280;4197;42.130;24.746;2024-01-25T00:22:42;99857.03;;;1.92;100.00
8320;BME280;4197;42.130;24.746;2024-01-25T00:25:10;99840.56;;;2.04;100.00
8320;BME280;4197;42.130;24.746;2024-01-25T00:27:38;99821.09;;;1.98;100.00
8320;BME280;4197;42.130;24.746;2024-01-25T00:30:08;99827.66;;;1.87;100.00
8320;BME280;4197;42.130;24.746;2024-01-25T00:32:38;99831.44;;;1.86;100.00
8320;BME280;4197;42.130;24.746;2024-01-25T00:35:07;99839.28;;;1.77;100.00
8320;BME280;4197;42.130;24.746;2024-01-25T00:37:38;99829.16;;;1.74;100.00
8320;BME280;4197;42.130;24.746;2024-01-25T00:40:07;99823.47;;;1.81;100.00
8320;BME280;4197;42.130;24.746;2024-01-25T00:42:39;99840.34;;;2.00;100.00
8320;BME280;4197;42.130;24.746;2024-01-25T00:45:10;99821.13;;;2.17;100.00
8320;BME280;4197;42.130;24.746;2024-01-25T00:47:41;99809.72;;;2.31;100.00
8320;BME280;4197;42.130;24.746;2024-01-25T00:50:10;99811.94;;;2.61;99.73
8320;BME280;4197;42.130;24.746;2024-01-25T00:52:39;99817.97;;;2.86;95.76
8320;BME280;4197;42.130;24.746;2024-01-25T00:55:09;99812.84;;;3.03;93.22
8320;BME280;4197;42.130;24.746;2024-01-25T00:57:38;99794.28;;;3.07;92.44
8320;BME280;4197;42.130;24.746;2024-01-25T01:00:07;99802.34;;;3.21;92.03
8320;BME280;4197;42.130;24.746;2024-01-25T01:02:42;99808.50;;;3.35;90.47
8320;BME280;4197;42.130;24.746;2024-01-25T01:05:12;99803.56;;;3.42;90.73
8320;BME280;4197;42.130;24.746;2024-01-25T01:07:42;99783.00;;;3.51;91.09
8320;BME280;4197;42.130;24.746;2024-01-25T01:10:12;99781.84;;;3.57;91.93
8320;BME280;4197;42.130;24.746;2024-01-25T01:12:41;99768.59;;;3.89;90.79
8320;BME280;4197;42.130;24.746;2024-01-25T01:15:10;99759.69;;;4.16;89.67
8320;BME280;4197;42.130;24.746;2024-01-25T01:17:40;99743.97;;;4.54;88.98
8320;BME280;4197;42.130;24.746;2024-01-25T01:20:09;99740.91;;;4.92;87.58
8320;BME280;4197;42.130;24.746;2024-01-25T01:22:38;99737.16;;;5.50;84.29
8320;BME280;4197;42.130;24.746;2024-01-25T01:25:06;99732.16;;;5.84;81.54
8320;BME280;4197;42.130;24.746;2024-01-25T01:27:36;99731.41;;;6.09;79.70
8320;BME280;4197;42.130;24.746;2024-01-25T01:30:05;99741.09;;;6.28;78.19
8320;BME280;4197;42.130;24.746;2024-01-25T01:32:35;99744.72;;;6.40;76.64
8320;BME280;4197;42.130;24.746;2024-01-25T01:35:06;99735.50;;;6.50;75.03
8320;BME280;4197;42.130;24.746;2024-01-25T01:37:34;99726.13;;;6.65;72.32
8320;BME280;4197;42.130;24.746;2024-01-25T01:40:03;99743.09;;;6.74;70.81
8320;BME280;4197;42.130;24.746;2024-01-25T01:42:33;99740.38;;;6.74;70.17
8320;BME280;4197;42.130;24.746;2024-01-25T01:45:02;99745.28;;;6.81;68.47
8320;BME280;4197;42.130;24.746;2024-01-25T01:47:30;99728.16;;;6.85;68.40
8320;BME280;4197;42.130;24.746;2024-01-25T01:50:00;99729.25;;;6.93;68.21
8320;BME280;4197;42.130;24.746;2024-01-25T01:52:31;99740.66;;;6.99;68.25
8320;BME280;4197;42.130;24.746;2024-01-25T01:54:59;99736.97;;;7.03;68.49
8320;BME280;4197;42.130;24.746;2024-01-25T01:57:28;99731.56;;;7.03;68.33
8320;BME280;4197;42.130;24.746;2024-01-25T01:59:58;99729.81;;;7.07;68.15
8320;BME280;4197;42.130;24.746;2024-01-25T02:02:30;99734.25;;;7.03;68.00
8320;BME280;4197;42.130;24.746;2024-01-25T02:04:58;99719.34;;;7.06;67.89
8320;BME280;4197;42.130;24.746;2024-01-25T02:07:27;99730.28;;;7.09;66.45
8320;BME280;4197;42.130;24.746;2024-01-25T02:09:58;99710.44;;;7.14;65.77
8320;BME280;4197;42.130;24.746;2024-01-25T02:12:26;99711.22;;;7.14;65.76
8320;BME280;4197;42.130;24.746;2024-01-25T02:14:55;99709.28;;;7.24;65.32
8320;BME280;4197;42.130;24.746;2024-01-25T02:17:23;99718.13;;;7.33;65.25
8320;BME280;4197;42.130;24.746;2024-01-25T02:19:52;99718.41;;;7.40;64.91
8320;BME280;4197;42.130;24.746;2024-01-25T02:22:22;99702.31;;;7.52;64.64
8320;BME280;4197;42.130;24.746;2024-01-25T02:24:50;99702.06;;;7.66;64.51
8320;BME280;4197;42.130;24.746;2024-01-25T02:27:20;99702.00;;;7.75;64.69
8320;BME280;4197;42.130;24.746;2024-01-25T02:29:49;99697.38;;;7.75;65.13
8320;BME280;4197;42.130;24.746;2024-01-25T02:32:17;99702.94;;;7.79;65.45
8320;BME280;4197;42.130;24.746;2024-01-25T02:34:45;99687.44;;;7.88;65.96
8320;BME280;4197;42.130;24.746;2024-01-25T02:37:14;99685.03;;;7.95;66.65
8320;BME280;4197;42.130;24.746;2024-01-25T02:39:45;99693.84;;;8.04;66.75
8320;BME280;4197;42.130;24.746;2024-01-25T02:42:13;99688.91;;;8.07;67.53
8320;BME280;4197;42.130;24.746;2024-01-25T02:44:43;99682.09;;;8.21;67.95
8320;BME280;4197;42.130;24.746;2024-01-25T02:47:11;99690.22;;;8.34;67.92
8320;BME280;4197;42.130;24.746;2024-01-25T02:49:42;99677.91;;;8.45;67.53
8320;BME280;4197;42.130;24.746;2024-01-25T02:52:11;99670.84;;;8.53;67.50
8320;BME280;4197;42.130;24.746;2024-01-25T02:54:39;99670.31;;;8.59;67.34
8320;BME280;4197;42.130;24.746;2024-01-25T02:57:10;99658.38;;;8.73;66.91
8320;BME280;4197;42.130;24.746;2024-01-25T02:59:38;99651.97;;;8.77;67.18
8320;BME280;4197;42.130;24.746;2024-01-25T03:02:06;99651.41;;;8.84;67.31
8320;BME280;4197;42.130;24.746;2024-01-25T03:04:35;99644.41;;;8.83;67.64
8320;BME280;4197;42.130;24.746;2024-01-25T03:07:04;99633.38;;;8.88;68.40
8320;BME280;4197;42.130;24.746;2024-01-25T03:09:33;99645.91;;;8.92;69.09
8320;BME280;4197;42.130;24.746;2024-01-25T03:12:01;99656.72;;;8.92;70.24
8320;BME280;4197;42.130;24.746;2024-01-25T03:14:31;99636.44;;;8.99;70.40
8320;BME280;4197;42.130;24.746;2024-01-25T03:16:59;99636.41;;;9.11;70.11
8320;BME280;4197;42.130;24.746;2024-01-25T03:19:28;99642.16;;;9.22;70.23
8320;BME280;4197;42.130;24.746;2024-01-25T03:21:56;99647.81;;;9.29;70.57
8320;BME280;4197;42.130;24.746;2024-01-25T03:24:25;99650.28;;;9.34;70.22
8320;BME280;4197;42.130;24.746;2024-01-25T03:26:54;99646.66;;;9.30;70.73
8320;BME280;4197;42.130;24.746;2024-01-25T03:29:22;99629.53;;;9.26;71.46
8320;BME280;4197;42.130;24.746;2024-01-25T03:31:52;99635.28;;;9.24;72.07
8320;BME280;4197;42.130;24.746;2024-01-25T03:34:20;99637.66;;;9.26;71.83
8320;BME280;4197;42.130;24.746;2024-01-25T03:36:48;99651.75;;;9.07;72.08
8320;BME280;4197;42.130;24.746;2024-01-25T03:39:17;99631.00;;;8.86;71.99
8320;BME280;4197;42.130;24.746;2024-01-25T03:41:45;99636.75;;;8.73;72.27
8320;BME280;4197;42.130;24.746;2024-01-25T03:44:14;99644.28;;;8.67;72.65
8320;BME280;4197;42.130;24.746;2024-01-25T03:46:42;99643.91;;;8.56;72.28
8320;BME280;4197;42.130;24.746;2024-01-25T03:49:12;99646.97;;;8.55;71.73
8320;BME280;4197;42.130;24.746;2024-01-25T03:51:40;99639.66;;;8.55;71.36
8320;BME280;4197;42.130;24.746;2024-01-25T03:54:09;99659.03;;;8.57;70.47
8320;BME280;4197;42.130;24.746;2024-01-25T03:56:37;99662.19;;;8.59;69.74
8320;BME280;4197;42.130;24.746;2024-01-25T03:59:06;99667.72;;;8.63;69.28
8320;BME280;4197;42.130;24.746;2024-01-25T04:01:42;99678.06;;;8.61;68.99
8320;BME280;4197;42.130;24.746;2024-01-25T04:04:12;99683.25;;;8.66;68.14
8320;BME280;4197;42.130;24.746;2024-01-25T04:06:43;99681.44;;;8.70;68.03
8320;BME280;4197;42.130;24.746;2024-01-25T04:09:12;99653.88;;;8.77;68.82
8320;BME280;4197;42.130;24.746;2024-01-25T04:11:42;99648.16;;;8.90;68.50
8320;BME280;4197;42.130;24.746;2024-01-25T04:14:10;99661.13;;;9.09;68.04
8320;BME280;4197;42.130;24.746;2024-01-25T04:16:38;99639.09;;;9.35;67.02
8320;BME280;4197;42.130;24.746;2024-01-25T04:19:07;99643.59;;;9.44;66.62
8320;BME280;4197;42.130;24.746;2024-01-25T04:21:41;99642.13;;;9.46;66.66
8320;BME280;4197;42.130;24.746;2024-01-25T04:24:09;99645.97;;;9.45;66.20
8320;BME280;4197;42.130;24.746;2024-01-25T04:26:37;99647.88;;;9.45;66.13
8320;BME280;4197;42.130;24.746;2024-01-25T04:29:06;99665.47;;;9.51;66.23
8320;BME280;4197;42.130;24.746;2024-01-25T04:31:34;99676.41;;;9.54;65.83
8320;BME280;4197;42.130;24.746;2024-01-25T04:34:02;99692.56;;;9.51;66.12
8320;BME280;4197;42.130;24.746;2024-01-25T04:36:31;99696.03;;;9.51;66.62
8320;BME280;4197;42.130;24.746;2024-01-25T04:39:01;99693.78;;;9.53;66.92
8320;BME280;4197;42.130;24.746;2024-01-25T04:41:29;99685.91;;;9.48;67.21
8320;BME280;4197;42.130;24.746;2024-01-25T04:43:58;99692.44;;;9.47;67.41
8320;BME280;4197;42.130;24.746;2024-01-25T04:46:26;99688.25;;;9.50;67.74
8320;BME280;4197;42.130;24.746;2024-01-25T04:48:54;99678.78;;;9.44;67.66
8320;BME280;4197;42.130;24.746;2024-01-25T04:51:23;99679.00;;;9.38;68.45
8320;BME280;4197;42.130;24.746;2024-01-25T04:53:52;99671.47;;;9.32;69.07
8320;BME280;4197;42.130;24.746;2024-01-25T04:56:21;99687.50;;;9.37;68.69
8320;BME280;4197;42.130;24.746;2024-01-25T04:58:50;99690.88;;;9.34;68.97
8320;BME280;4197;42.130;24.746;2024-01-25T05:01:18;99682.63;;;9.30;68.96
8320;BME280;4197;42.130;24.746;2024-01-25T05:03:46;99677.66;;;9.32;69.40
8320;BME280;4197;42.130;24.746;2024-01-25T05:06:15;99671.81;;;9.30;69.14
8320;BME280;4197;42.130;24.746;2024-01-25T05:08:43;99690.41;;;9.32;68.95
8320;BME280;4197;42.130;24.746;2024-01-25T05:11:12;99685.34;;;9.30;69.64
8320;BME280;4197;42.130;24.746;2024-01-25T05:13:42;99695.84;;;9.32;69.49
8320;BME280;4197;42.130;24.746;2024-01-25T05:16:11;99680.28;;;9.29;70.15
8320;BME280;4197;42.130;24.746;2024-01-25T05:18:39;99683.31;;;9.27;70.73
8320;BME280;4197;42.130;24.746;2024-01-25T05:21:08;99672.38;;;9.24;71.43
8320;BME280;4197;42.130;24.746;2024-01-25T05:23:36;99642.94;;;9.22;72.01
8320;BME280;4197;42.130;24.746;2024-01-25T05:26:06;99660.97;;;9.30;71.96
8320;BME280;4197;42.130;24.746;2024-01-25T05:28:34;99675.97;;;9.40;71.69
8320;BME280;4197;42.130;24.746;2024-01-25T05:31:04;99695.34;;;9.42;71.51
8320;BME280;4197;42.130;24.746;2024-01-25T05:33:36;99681.50;;;9.44;72.14
8320;BME280;4197;42.130;24.746;2024-01-25T05:36:05;99670.09;;;9.50;72.07
8320;BME280;4197;42.130;24.746;2024-01-25T05:38:34;99656.31;;;9.55;71.93
8320;BME280;4197;42.130;24.746;2024-01-25T05:41:02;99693.66;;;9.62;71.81
8320;BME280;4197;42.130;24.746;2024-01-25T05:43:31;99694.91;;;9.65;71.41
8320;BME280;4197;42.130;24.746;2024-01-25T05:46:00;99681.66;;;9.75;71.21
8320;BME280;4197;42.130;24.746;2024-01-25T05:48:32;99679.63;;;9.85;70.94
8320;BME280;4197;42.130;24.746;2024-01-25T05:51:01;99693.72;;;9.90;70.99
8320;BME280;4197;42.130;24.746;2024-01-25T05:53:29;99705.41;;;9.94;70.53
8320;BME280;4197;42.130;24.746;2024-01-25T05:55:58;99708.59;;;9.96;70.67
8320;BME280;4197;42.130;24.746;2024-01-25T05:58:26;99710.41;;;9.92;70.80
8320;BME280;4197;42.130;24.746;2024-01-25T06:00:56;99714.94;;;9.88;71.19
8320;BME280;4197;42.130;24.746;2024-01-25T06:03:25;99724.53;;;9.86;71.25
8320;BME280;4197;42.130;24.746;2024-01-25T06:05:55;99715.94;;;9.83;71.65
8320;BME280;4197;42.130;24.746;2024-01-25T06:08:23;99734.34;;;9.78;72.08
8320;BME280;4197;42.130;24.746;2024-01-25T06:10:52;99734.94;;;9.71;72.51
8320;BME280;4197;42.130;24.746;2024-01-25T06:13:21;99739.56;;;9.71;72.50
8320;BME280;4197;42.130;24.746;2024-01-25T06:15:49;99759.53;;;9.66;72.86
8320;BME280;4197;42.130;24.746;2024-01-25T06:18:18;99765.53;;;9.59;73.59
8320;BME280;4197;42.130;24.746;2024-01-25T06:20:50;99767.78;;;9.57;73.76
8320;BME280;4197;42.130;24.746;2024-01-25T06:23:19;99780.28;;;9.50;74.15
8320;BME280;4197;42.130;24.746;2024-01-25T06:25:48;99780.63;;;9.48;74.89
8320;BME280;4197;42.130;24.746;2024-01-25T06:28:17;99788.88;;;9.40;75.43
8320;BME280;4197;42.130;24.746;2024-01-25T06:30:46;99789.53;;;9.36;74.97
8320;BME280;4197;42.130;24.746;2024-01-25T06:33:15;99798.47;;;9.37;75.52
8320;BME280;4197;42.130;24.746;2024-01-25T06:35:44;99782.22;;;9.37;74.93
8320;BME280;4197;42.130;24.746;2024-01-25T06:38:13;99782.53;;;9.35;75.19
8320;BME280;4197;42.130;24.746;2024-01-25T06:40:43;99769.22;;;9.30;75.12
8320;BME280;4197;42.130;24.746;2024-01-25T06:43:12;99781.28;;;9.33;74.65
8320;BME280;4197;42.130;24.746;2024-01-25T06:45:40;99790.66;;;9.35;73.85
8320;BME280;4197;42.130;24.746;2024-01-25T06:48:08;99789.31;;;9.42;72.95
8320;BME280;4197;42.130;24.746;2024-01-25T06:50:37;99773.41;;;9.40;73.08
8320;BME280;4197;42.130;24.746;2024-01-25T06:53:06;99768.44;;;9.42;73.00
8320;BME280;4197;42.130;24.746;2024-01-25T06:55:35;99767.44;;;9.47;71.94
8320;BME280;4197;42.130;24.746;2024-01-25T06:58:05;99767.31;;;9.43;72.67
8320;BME280;4197;42.130;24.746;2024-01-25T07:00:34;99776.13;;;9.40;72.91
8320;BME280;4197;42.130;24.746;2024-01-25T07:03:03;99770.81;;;9.44;72.95
8320;BME280;4197;42.130;24.746;2024-01-25T07:05:32;99762.38;;;9.45;72.55
8320;BME280;4197;42.130;24.746;2024-01-25T07:08:02;99765.66;;;9.51;71.69
8320;BME280;4197;42.130;24.746;2024-01-25T07:10:31;99766.75;;;9.50;71.93
8320;BME280;4197;42.130;24.746;2024-01-25T07:12:59;99780.06;;;9.55;71.02
8320;BME280;4197;42.130;24.746;2024-01-25T07:15:29;99782.44;;;9.56;70.52
8320;BME280;4197;42.130;24.746;2024-01-25T07:17:58;99770.03;;;9.55;70.97
8320;BME280;4197;42.130;24.746;2024-01-25T07:20:26;99757.53;;;9.51;71.39
8320;BME280;4197;42.130;24.746;2024-01-25T07:22:56;99781.44;;;9.49;71.40
8320;BME280;4197;42.130;24.746;2024-01-25T07:25:24;99787.97;;;9.60;70.46
8320;BME280;4197;42.130;24.746;2024-01-25T07:27:53;99783.00;;;9.62;69.79
8320;BME280;4197;42.130;24.746;2024-01-25T07:30:21;99775.00;;;9.66;68.98
8320;BME280;4197;42.130;24.746;2024-01-25T07:32:51;99786.94;;;9.77;67.63
8320;BME280;4197;42.130;24.746;2024-01-25T07:35:20;99791.00;;;9.83;67.65
8320;BME280;4197;42.130;24.746;2024-01-25T07:37:50;99794.38;;;9.92;65.37
8320;BME280;4197;42.130;24.746;2024-01-25T07:40:19;99787.69;;;10.02;64.56
8320;BME280;4197;42.130;24.746;2024-01-25T07:42:47;99785.63;;;10.11;64.05
8320;BME280;4197;42.130;24.746;2024-01-25T07:45:16;99785.41;;;10.16;63.39
8320;BME280;4197;42.130;24.746;2024-01-25T07:47:44;99791.75;;;10.20;63.37
8320;BME280;4197;42.130;24.746;2024-01-25T07:50:16;99780.91;;;10.20;63.67
8320;BME280;4197;42.130;24.746;2024-01-25T07:52:44;99771.28;;;10.23;63.80
8320;BME280;4197;42.130;24.746;2024-01-25T07:55:13;99779.31;;;10.32;63.36
8320;BME280;4197;42.130;24.746;2024-01-25T07:57:41;99776.47;;;10.40;63.08
8320;BME280;4197;42.130;24.746;2024-01-25T08:00:11;99786.69;;;10.47;63.26
8320;BME280;4197;42.130;24.746;2024-01-25T08:02:39;99791.00;;;10.48;63.08
8320;BME280;4197;42.130;24.746;2024-01-25T08:05:08;99779.91;;;10.53;62.85
8320;BME280;4197;42.130;24.746;2024-01-25T08:07:39;99779.09;;;10.53;62.62
8320;BME280;4197;42.130;24.746;2024-01-25T08:10:08;99782.47;;;10.62;61.31
8320;BME280;4197;42.130;24.746;2024-01-25T08:12:37;99775.75;;;10.71;61.67
8320;BME280;4197;42.130;24.746;2024-01-25T08:15:14;99780.59;;;10.78;60.84
8320;BME280;4197;42.130;24.746;2024-01-25T08:17:43;99780.84;;;10.73;61.31
8320;BME280;4197;42.130;24.746;2024-01-25T08:20:12;99785.81;;;10.71;61.45
8320;BME280;4197;42.130;24.746;2024-01-25T08:22:43;99771.66;;;10.78;61.32
8320;BME280;4197;42.130;24.746;2024-01-25T08:25:11;99760.56;;;10.83;61.08
8320;BME280;4197;42.130;24.746;2024-01-25T08:27:40;99765.47;;;10.93;61.70
8320;BME280;4197;42.130;24.746;2024-01-25T08:30:09;99764.53;;;11.01;61.43
8320;BME280;4197;42.130;24.746;2024-01-25T08:32:38;99768.38;;;11.16;60.80
8320;BME280;4197;42.130;24.746;2024-01-25T08:35:07;99755.88;;;11.11;61.04
8320;BME280;4197;42.130;24.746;2024-01-25T08:37:36;99759.00;;;11.13;60.82
8320;BME280;4197;42.130;24.746;2024-01-25T08:40:08;99752.00;;;11.12;60.78
8320;BME280;4197;42.130;24.746;2024-01-25T08:42:37;99751.41;;;11.03;60.32
8320;BME280;4197;42.130;24.746;2024-01-25T08:45:07;99746.31;;;11.02;60.82
8320;BME280;4197;42.130;24.746;2024-01-25T08:47:36;99732.41;;;11.03;60.85
8320;BME280;4197;42.130;24.746;2024-01-25T08:50:05;99746.41;;;11.05;60.98
8320;BME280;4197;42.130;24.746;2024-01-25T08:52:37;99723.97;;;11.08;60.48
8320;BME280;4197;42.130;24.746;2024-01-25T08:55:09;99739.84;;;11.06;59.18
8320;BME280;4197;42.130;24.746;2024-01-25T08:57:38;99746.75;;;11.04;59.91
8320;BME280;4197;42.130;24.746;2024-01-25T09:00:09;99736.34;;;11.06;60.10
8320;BME280;4197;42.130;24.746;2024-01-25T09:02:38;99740.97;;;11.05;60.01
8320;BME280;4197;42.130;24.746;2024-01-25T09:05:07;99743.63;;;11.18;60.28
8320;BME280;4197;42.130;24.746;2024-01-25T09:07:37;99747.81;;;11.15;59.34
8320;BME280;4197;42.130;24.746;2024-01-25T09:10:06;99748.78;;;11.07;59.68
8320;BME280;4197;42.130;24.746;2024-01-25T09:12:37;99733.97;;;11.04;58.72
8320;BME280;4197;42.130;24.746;2024-01-25T09:15:06;99743.25;;;11.19;58.81
8320;BME280;4197;42.130;24.746;2024-01-25T09:17:36;99743.00;;;11.24;57.61
8320;BME280;4197;42.130;24.746;2024-01-25T09:20:06;99730.66;;;11.27;56.97
8320;BME280;4197;42.130;24.746;2024-01-25T09:22:36;99769.44;;;11.27;56.89
8320;BME280;4197;42.130;24.746;2024-01-25T09:25:05;99759.97;;;11.21;56.49
8320;BME280;4197;42.130;24.746;2024-01-25T09:27:37;99763.66;;;11.29;56.28
8320;BME280;4197;42.130;24.746;2024-01-25T09:30:07;99759.47;;;11.31;55.94
8320;BME280;4197;42.130;24.746;2024-01-25T09:32:35;99767.88;;;11.26;55.59
8320;BME280;4197;42.130;24.746;2024-01-25T09:35:05;99760.59;;;11.30;55.68
8320;BME280;4197;42.130;24.746;2024-01-25T09:37:35;99770.41;;;11.35;56.11
8320;BME280;4197;42.130;24.746;2024-01-25T09:40:05;99767.06;;;11.42;56.01
8320;BME280;4197;42.130;24.746;2024-01-25T09:42:34;99768.03;;;11.49;56.05
8320;BME280;4197;42.130;24.746;2024-01-25T09:45:06;99789.47;;;11.54;55.74
8320;BME280;4197;42.130;24.746;2024-01-25T09:47:38;99760.50;;;11.43;55.16
8320;BME280;4197;42.130;24.746;2024-01-25T09:50:08;99760.31;;;11.51;55.26
8320;BME280;4197;42.130;24.746;2024-01-25T09:52:38;99755.31;;;11.53;55.39
8320;BME280;4197;42.130;24.746;2024-01-25T09:55:07;99752.63;;;11.53;55.31
8320;BME280;4197;42.130;24.746;2024-01-25T09:57:37;99760.59;;;11.46;55.21
8320;BME280;4197;42.130;24.746;2024-01-25T10:00:08;99762.34;;;11.38;55.61
8320;BME280;4197;42.130;24.746;2024-01-25T10:02:39;99764.97;;;11.35;54.65
8320;BME280;4197;42.130;24.746;2024-01-25T10:05:08;99755.59;;;11.32;55.91
8320;BME280;4197;42.130;24.746;2024-01-25T10:07:40;99751.56;;;11.26;55.81
8320;BME280;4197;42.130;24.746;2024-01-25T10:10:10;99739.75;;;11.34;55.39
8320;BME280;4197;42.130;24.746;2024-01-25T10:12:40;99757.25;;;11.37;55.45
8320;BME280;4197;42.130;24.746;2024-01-25T10:15:11;99734.47;;;11.42;54.59
8320;BME280;4197;42.130;24.746;2024-01-25T10:17:39;99745.50;;;11.49;54.48
8320;BME280;4197;42.130;24.746;2024-01-25T10:20:14;99755.22;;;11.50;54.58
8320;BME280;4197;42.130;24.746;2024-01-25T10:22:43;99753.59;;;11.45;54.63
8320;BME280;4197;42.130;24.746;2024-01-25T10:25:12;99754.00;;;11.47;55.25
8320;BME280;4197;42.130;24.746;2024-01-25T10:27:42;99750.88;;;11.45;55.06
8320;BME280;4197;42.130;24.746;2024-01-25T10:30:14;99748.88;;;11.42;55.55
8320;BME280;4197;42.130;24.746;2024-01-25T10:32:42;99744.56;;;11.41;55.40
8320;BME280;4197;42.130;24.746;2024-01-25T10:35:11;99751.56;;;11.42;55.19
8320;BME280;4197;42.130;24.746;2024-01-25T10:37:41;99745.78;;;11.44;55.30
8320;BME280;4197;42.130;24.746;2024-01-25T10:40:10;99731.16;;;11.48;55.10
8320;BME280;4197;42.130;24.746;2024-01-25T10:42:39;99730.78;;;11.50;54.96
8320;BME280;4197;42.130;24.746;2024-01-25T10:45:12;99724.75;;;11.56;54.46
8320;BME280;4197;42.130;24.746;2024-01-25T10:47:40;99733.34;;;11.58;54.34
8320;BME280;4197;42.130;24.746;2024-01-25T10:50:10;99720.53;;;11.59;54.82
8320;BME280;4197;42.130;24.746;2024-01-25T10:52:42;99720.44;;;11.55;54.72
8320;BME280;4197;42.130;24.746;2024-01-25T10:55:11;99710.56;;;11.47;54.34
8320;BME280;4197;42.130;24.746;2024-01-25T10:57:43;99706.13;;;11.39;54.45
8320;BME280;4197;42.130;24.746;2024-01-25T11:00:15;99702.53;;;11.35;54.28
8320;BME280;4197;42.130;24.746;2024-01-25T11:02:44;99725.41;;;11.34;54.20
8320;BME280;4197;42.130;24.746;2024-01-25T11:05:14;99705.25;;;11.35;54.19
8320;BME280;4197;42.130;24.746;2024-01-25T11:07:44;99714.09;;;11.32;53.81
8320;BME280;4197;42.130;24.746;2024-01-25T11:10:15;99714.88;;;11.32;53.73
8320;BME280;4197;42.130;24.746;2024-01-25T11:12:51;99712.22;;;11.36;53.70
8320;BME280;4197;42.130;24.746;2024-01-25T11:15:23;99707.25;;;11.38;53.23
8320;BME280;4197;42.130;24.746;2024-01-25T11:17:53;99696.66;;;11.33;53.76
8320;BME280;4197;42.130;24.746;2024-01-25T11:20:23;99707.94;;;11.35;53.82
8320;BME280;4197;42.130;24.746;2024-01-25T11:22:56;99700.69;;;11.39;53.51
8320;BME280;4197;42.130;24.746;2024-01-25T11:25:29;99709.97;;;11.38;53.75
8320;BME280;4197;42.130;24.746;2024-01-25T11:27:59;99708.41;;;11.37;53.64
8320;BME280;4197;42.130;24.746;2024-01-25T11:30:31;99699.69;;;11.47;53.30
8320;BME280;4197;42.130;24.746;2024-01-25T11:33:02;99688.16;;;11.50;52.86
8320;BME280;4197;42.130;24.746;2024-01-25T11:35:33;99701.63;;;11.47;52.69
8320;BME280;4197;42.130;24.746;2024-01-25T11:38:02;99696.03;;;11.39;53.44
8320;BME280;4197;42.130;24.746;2024-01-25T11:40:33;99709.81;;;11.31;53.56
8320;BME280;4197;42.130;24.746;2024-01-25T11:43:05;99706.06;;;11.20;53.95
8320;BME280;4197;42.130;24.746;2024-01-25T11:45:40;99699.03;;;11.19;54.68
8320;BME280;4197;42.130;24.746;2024-01-25T11:48:10;99703.41;;;11.23;54.64
8320;BME280;4197;42.130;24.746;2024-01-25T11:50:39;99707.50;;;11.33;54.62
8320;BME280;4197;42.130;24.746;2024-01-25T11:53:08;99690.69;;;11.43;54.38
8320;BME280;4197;42.130;24.746;2024-01-25T11:55:37;99694.50;;;11.58;53.68
8320;BME280;4197;42.130;24.746;2024-01-25T11:58:05;99688.09;;;11.66;53.24
8320;BME280;4197;42.130;24.746;2024-01-25T12:00:34;99686.75;;;11.76;53.14
8320;BME280;4197;42.130;24.746;2024-01-25T12:03:05;99682.94;;;11.80;52.71
8320;BME280;4197;42.130;24.746;2024-01-25T12:05:34;99675.63;;;11.81;53.07
8320;BME280;4197;42.130;24.746;2024-01-25T12:08:08;99666.91;;;11.91;53.19
8320;BME280;4197;42.130;24.746;2024-01-25T12:10:37;99670.84;;;11.94;54.26
8320;BME280;4197;42.130;24.746;2024-01-25T12:13:07;99662.19;;;12.08;54.52
8320;BME280;4197;42.130;24.746;2024-01-25T12:15:35;99664.19;;;12.11;54.25
8320;BME280;4197;42.130;24.746;2024-01-25T12:18:07;99678.78;;;12.02;53.19
8320;BME280;4197;42.130;24.746;2024-01-25T12:20:37;99682.66;;;12.01;52.33
8320;BME280;4197;42.130;24.746;2024-01-25T12:23:06;99685.06;;;11.87;52.53
8320;BME280;4197;42.130;24.746;2024-01-25T12:25:39;99684.72;;;11.89;51.95
8320;BME280;4197;42.130;24.746;2024-01-25T12:28:09;99684.03;;;11.76;52.04
8320;BME280;4197;42.130;24.746;2024-01-25T12:30:38;99675.72;;;11.69;52.14
8320;BME280;4197;42.130;24.746;2024-01-25T12:33:07;99683.47;;;11.67;52.49
8320;BME280;4197;42.130;24.746;2024-01-25T12:35:38;99679.00;;;11.58;52.63
8320;BME280;4197;42.130;24.746;2024-01-25T12:38:08;99664.72;;;11.61;53.55
8320;BME280;4197;42.130;24.746;2024-01-25T12:40:36;99670.22;;;11.65;54.26
8320;BME280;4197;42.130;24.746;2024-01-25T12:43:07;99667.78;;;11.60;54.21
8320;BME280;4197;42.130;24.746;2024-01-25T12:45:35;99654.13;;;11.56;53.60
8320;BME280;4197;42.130;24.746;2024-01-25T12:48:04;99663.06;;;11.57;53.78
8320;BME280;4197;42.130;24.746;2024-01-25T12:50:37;99669.13;;;11.50;53.40
8320;BME280;4197;42.130;24.746;2024-01-25T12:53:06;99652.59;;;11.39;52.67
8320;BME280;4197;42.130;24.746;2024-01-25T12:55:35;99658.66;;;11.33;52.17
8320;BME280;4197;42.130;24.746;2024-01-25T12:58:04;99659.44;;;11.33;52.44
8320;BME280;4197;42.130;24.746;2024-01-25T13:00:32;99645.88;;;11.33;52.15
8320;BME280;4197;42.130;24.746;2024-01-25T13:03:01;99660.50;;;11.29;51.67
8320;BME280;4197;42.130;24.746;2024-01-25T13:05:30;99658.91;;;11.28;51.23
8320;BME280;4197;42.130;24.746;2024-01-25T13:08:03;99644.56;;;11.27;50.87
8320;BME280;4197;42.130;24.746;2024-01-25T13:10:32;99651.47;;;11.25;51.17
8320;BME280;4197;42.130;24.746;2024-01-25T13:13:01;99649.97;;;11.27;51.22
8320;BME280;4197;42.130;24.746;2024-01-25T13:15:29;99647.38;;;11.31;51.14
8320;BME280;4197;42.130;24.746;2024-01-25T13:17:58;99660.13;;;11.30;51.13
8320;BME280;4197;42.130;24.746;2024-01-25T13:20:28;99652.28;;;11.25;50.92
8320;BME280;4197;42.130;24.746;2024-01-25T13:22:56;99650.69;;;11.24;51.01
8320;BME280;4197;42.130;24.746;2024-01-25T13:25:26;99651.56;;;11.28;50.86
8320;BME280;4197;42.130;24.746;2024-01-25T13:27:55;99655.69;;;11.22;51.15